Time;durP1;ratioP1;P1;durP2;ratioP2;P2;SDS_P1;SDS_P2;PMS_P1;PMS_P2;Temp;Humidity;BMP_temperature;BMP_pressure;BME280_temperature;BME280_humidity;BME280_pressure;Samples;Min_cycle;Max_cycle;Signal;HPM_P1;HPM_P2
2023/10/03 05:18:04;;;;;;;;;;;;;;;;;;5056557;28;19919;-42
2023/10/03 05:20:40;;;;;;;;;;;;;;;;;;5051298;28;20457;-43
2023/10/03 05:23:06;;;;;;;;;;;;;;;;;;5069324;28;19916;-42
2023/10/03 05:25:42;;;;;;;;;;;;;;;;;;5068663;28;19904;-43
2023/10/03 05:28:10;;;;;;;;;;;;;;;;;;5068860;28;19965;-44
2023/10/03 05:30:38;;;;;;;;;;;;;;;;;;5068930;28;19965;-42
2023/10/03 05:33:06;;;;;;;;;;;;;;;;;;5068830;28;19999;-43
2023/10/03 05:35:31;;;;;;;;;;;;;;;;;;5069477;28;19916;-42
2023/10/03 05:37:57;;;;;;;;;;;;;;;;;;5068918;28;19908;-42
2023/10/03 05:40:23;;;;;;;;;;;;;;;;;;5069076;28;20367;-43
2023/10/03 05:42:49;;;;;;;;;;;;;;;;;;5068531;28;19960;-43
2023/10/03 05:45:15;;;;;;;;;;;;;;;;;;5049954;28;20462;-45
2023/10/03 05:47:44;;;;;;;;;;;;;;;;;;5082532;28;19912;-42
2023/10/03 05:50:10;;;;;;;;;;;;;;;;;;5090414;28;19919;-43
2023/10/03 05:52:36;;;;;;;;;;;;;;;;;;5068241;28;19909;-44
2023/10/03 05:55:02;;;;;;;;;;;;;;;;;;5067093;28;19959;-42
2023/10/03 05:57:28;;;;;;;;;;;;;;;;;;5069302;28;19998;-42
2023/10/03 05:59:54;;;;;;;;;;;;;;;;;;5067966;28;19912;-42
2023/10/03 06:02:21;;;;;;;;;;;;;;;;;;5048045;28;20313;-42
2023/10/03 06:04:47;;;;;;;;;;;;;;;;;;5046777;28;20008;-42
2023/10/03 06:07:13;;;;;;;;;;;;;;;;;;5064107;28;19995;-43
2023/10/03 06:09:39;;;;;;;;;;;;;;;;;;5068249;28;20648;-43
2023/10/03 06:12:05;;;;;;;;;;;;;;;;;;5067462;28;19912;-42
2023/10/03 06:14:31;;;;;;;;;;;;;;;;;;5068544;28;19999;-42
2023/10/03 06:16:57;;;;;;;;;;;;;;;;;;5063761;28;20436;-42
2023/10/03 06:19:23;;;;;;;;;;;;;;;;;;5050627;28;19923;-44
2023/10/03 06:21:49;;;;;;;;;;;;;;;;;;5068994;28;19908;-42
2023/10/03 06:24:15;;;;;;;;;;;;;;;;;;5068664;28;19908;-42
2023/10/03 06:26:47;;;;;;;;;;;;;;;;;;5065720;28;19987;-42
2023/10/03 06:29:15;;;;;;;;;;;;;;;;;;5066765;28;19999;-44
2023/10/03 06:31:41;;;;;;;;;;;;;;;;;;5067533;28;20378;-43
2023/10/03 06:34:07;;;;;;;;;;;;;;;;;;5070111;28;20582;-41
2023/10/03 06:36:33;;;;;;;;;;;;;;;;;;5068884;28;19919;-42
2023/10/03 06:38:59;;;;;;;;;;;;;;;;;;5069454;28;19912;-44
2023/10/03 06:41:26;;;;;;;;;;;;;;;;;;5055198;28;19913;-41
2023/10/03 06:43:52;;;;;;;;;;;;;;;;;;5073040;28;19962;-42
2023/10/03 06:46:18;;;;;;;;;;;;;;;;;;5056470;28;19917;-42
2023/10/03 06:48:46;;;;;;;;;;;;;;;;;;5069568;28;19963;-41
2023/10/03 06:51:12;;;;;;;;;;;;;;;;;;5072387;28;19909;-42
2023/10/03 06:53:38;;;;;;;;;;;;;;;;;;5053179;28;19924;-42
2023/10/03 06:56:04;;;;;;;;;;;;;;;;;;5055225;28;19915;-44
2023/10/03 06:58:30;;;;;;;;;;;;;;;;;;5072452;28;20456;-42
2023/10/03 07:00:56;;;;;;;;;;;;;;;;;;5071094;28;19912;-42
2023/10/03 07:03:22;;;;;;;;;;;;;;;;;;5069832;28;19958;-42
2023/10/03 07:05:48;;;;;;;;;;;;;;;;;;5055187;28;19909;-45
2023/10/03 07:08:14;;;;;;;;;;;;;;;;;;5072571;28;20443;-42
2023/10/03 07:10:41;;;;;;;;;;;;;;;;;;5072051;28;19923;-43
2023/10/03 07:13:07;;;;;;;;;;;;;;;;;;5071211;28;20302;-44
2023/10/03 07:15:33;;;;;;;;;;;;;;;;;;5071850;28;20267;-44
2023/10/03 07:17:59;;;;;;;;;;;;;;;;;;5069874;28;19961;-42
2023/10/03 07:20:25;;;;;;;;;;;;;;;;;;5052590;28;19923;-42
2023/10/03 07:22:51;;;;;;;;;;;;;;;;;;5069333;28;19923;-42
2023/10/03 07:25:17;;;;;;;;;;;;;;;;;;5069931;28;19971;-43
2023/10/03 07:27:43;;;;;;;;;;;;;;;;;;5069508;28;19909;-42
2023/10/03 07:30:09;;;;;;;;;;;;;;;;;;5051487;28;19969;-42
2023/10/03 07:32:35;;;;;;;;;;;;;;;;;;5069359;28;19912;-45
2023/10/03 07:35:01;;;;;;;;;;;;;;;;;;5069613;28;19919;-42
2023/10/03 07:37:26;;;;;;;;;;;;;;;;;;5070205;28;20000;-42
2023/10/03 07:39:52;;;;;;;;;;;;;;;;;;5069691;28;19909;-45
2023/10/03 07:42:21;;;;;;;;;;;;;;;;;;5069097;28;19913;-41
2023/10/03 07:44:51;;;;;;;;;;;;;;;;;;5069025;28;19912;-43
2023/10/03 07:47:17;;;;;;;;;;;;;;;;;;5069358;28;19915;-43
2023/10/03 07:49:43;;;;;;;;;;;;;;;;;;5068256;28;20007;-42
2023/10/03 07:52:09;;;;;;;;;;;;;;;;;;5069348;28;20375;-44
2023/10/03 07:54:37;;;;;;;;;;;;;;;;;;5051214;28;19908;-44
2023/10/03 07:57:05;;;;;;;;;;;;;;;;;;5069319;28;20375;-43
2023/10/03 07:59:31;;;;;;;;;;;;;;;;;;5069154;28;19982;-41
2023/10/03 08:01:57;;;;;;;;;;;;;;;;;;5051162;28;20567;-43
2023/10/03 08:04:24;;;;;;;;;;;;;;;;;;5070152;28;19913;-42
2023/10/03 08:06:50;;;;;;;;;;;;;;;;;;5070403;28;19909;-43
2023/10/03 08:09:17;;;;;;;;;;;;;;;;;;5069718;28;19920;-44
2023/10/03 08:11:46;;;;;;;;;;;;;;;;;;5070123;28;19946;-41
2023/10/03 08:14:13;;;;;;;;;;;;;;;;;;5052035;28;19916;-44
2023/10/03 08:16:40;;;;;;;;;;;;;;;;;;5070040;28;19975;-42
2023/10/03 08:19:08;;;;;;;;;;;;;;;;;;5069988;28;19995;-43
2023/10/03 08:21:34;;;;;;;;;;;;;;;;;;5069888;28;19919;-40
2023/10/03 08:24:09;;;;;;;;;;;;;;;;;;5069320;28;19912;-45
2023/10/03 08:26:35;;;;;;;;;;;;;;;;;;5068691;28;19916;-43
2023/10/03 08:29:04;;;;;;;;;;;;;;;;;;5050046;28;19921;-43
2023/10/03 08:31:30;;;;;;;;;;;;;;;;;;5067255;28;19918;-43
2023/10/03 08:33:55;;;;;;;;;;;;;;;;;;5067997;28;19912;-42
2023/10/03 08:36:22;;;;;;;;;;;;;;;;;;5068617;28;19918;-43
2023/10/03 08:38:48;;;;;;;;;;;;;;;;;;5067742;28;19913;-43
2023/10/03 08:41:15;;;;;;;;;;;;;;;;;;5068103;28;20264;-43
2023/10/03 08:43:41;;;;;;;;;;;;;;;;;;5068268;28;20283;-42
2023/10/03 08:46:09;;;;;;;;;;;;;;;;;;5050341;28;19916;-42
2023/10/03 08:48:35;;;;;;;;;;;;;;;;;;5067801;28;20018;-42
2023/10/03 08:51:02;;;;;;;;;;;;;;;;;;5068720;28;19988;-42
2023/10/03 08:53:27;;;;;;;;;;;;;;;;;;5067767;28;19971;-44
2023/10/03 08:56:02;;;;;;;;;;;;;;;;;;5050103;28;19912;-43
2023/10/03 08:58:28;;;;;;;;;;;;;;;;;;5068464;28;19908;-42
2023/10/03 09:01:01;;;;;;;;;;;;;;;;;;5067923;28;19919;-43
2023/10/03 09:06:19;;;;;;;;;;;;;;;;;;5068042;28;19915;-43
2023/10/03 09:08:45;;;;;;;;;;;;;;;;;;5067825;28;20295;-43
2023/10/03 09:11:13;;;;;;;;;;;;;;;;;;5067242;28;19916;-42
2023/10/03 09:13:39;;;;;;;;;;;;;;;;;;5067919;28;20286;-42
2023/10/03 09:16:08;;;;;;;;;;;;;;;;;;5067654;28;19912;-43
2023/10/03 09:18:41;;;;;;;;;;;;;;;;;;5067718;28;19916;-41
2023/10/03 09:21:07;;;;;;;;;;;;;;;;;;5055146;28;19912;-43
2023/10/03 09:23:40;;;;;;;;;;;;;;;;;;5047519;28;19913;-43
2023/10/03 09:26:06;;;;;;;;;;;;;;;;;;5048672;28;20015;-43
2023/10/03 09:28:35;;;;;;;;;;;;;;;;;;5047850;28;20461;-42
2023/10/03 09:31:02;;;;;;;;;;;;;;;;;;5048371;28;19917;-44
2023/10/03 09:33:27;;;;;;;;;;;;;;;;;;5048997;28;20386;-45
2023/10/03 09:35:53;;;;;;;;;;;;;;;;;;5048064;28;19913;-44
2023/10/03 09:38:25;;;;;;;;;;;;;;;;;;5048335;28;19999;-43
2023/10/03 09:40:51;;;;;;;;;;;;;;;;;;5048188;28;19913;-43
2023/10/03 09:43:19;;;;;;;;;;;;;;;;;;5047711;28;19975;-44
2023/10/03 09:45:46;;;;;;;;;;;;;;;;;;5053791;28;19908;-44
2023/10/03 09:48:12;;;;;;;;;;;;;;;;;;5058954;28;19912;-43
2023/10/03 09:50:39;;;;;;;;;;;;;;;;;;5056375;28;19963;-42
2023/10/03 09:53:06;;;;;;;;;;;;;;;;;;5048380;28;19963;-42
2023/10/03 09:55:40;;;;;;;;;;;;;;;;;;5048121;28;19912;-46
2023/10/03 09:58:06;;;;;;;;;;;;;;;;;;5048478;28;19909;-43
2023/10/03 10:03:19;;;;;;;;;;;;;;;;;;5048278;28;19915;-44
2023/10/03 10:05:49;;;;;;;;;;;;;;;;;;5048039;28;19909;-44
2023/10/03 10:08:17;;;;;;;;;;;;;;;;;;5047966;28;19955;-44
2023/10/03 10:10:43;;;;;;;;;;;;;;;;;;5047649;28;20355;-45
2023/10/03 10:13:21;;;;;;;;;;;;;;;;;;5051275;28;19923;-42
2023/10/03 10:15:47;;;;;;;;;;;;;;;;;;5052067;28;19909;-46
2023/10/03 10:18:12;;;;;;;;;;;;;;;;;;5055165;28;20279;-43
2023/10/03 10:20:38;;;;;;;;;;;;;;;;;;5072037;28;19908;-44
2023/10/03 10:23:06;;;;;;;;;;;;;;;;;;5071851;28;20783;-42
2023/10/03 10:25:51;;;;;;;;;;;;;;;;;;5053938;28;19908;-44
2023/10/03 10:28:17;;;;;;;;;;;;;;;;;;5071843;28;19909;-43
2023/10/03 10:30:44;;;;;;;;;;;;;;;;;;5067575;28;19970;-42
2023/10/03 10:33:10;;;;;;;;;;;;;;;;;;5052658;28;19919;-42
2023/10/03 10:35:36;;;;;;;;;;;;;;;;;;5051886;28;19909;-44
2023/10/03 10:38:06;;;;;;;;;;;;;;;;;;5051419;28;19932;-43
2023/10/03 10:40:35;;;;;;;;;;;;;;;;;;5051747;28;20275;-44
2023/10/03 10:43:01;;;;;;;;;;;;;;;;;;5051597;28;20076;-43
2023/10/03 10:45:27;;;;;;;;;;;;;;;;;;5051566;28;19909;-46
2023/10/03 10:47:55;;;;;;;;;;;;;;;;;;5033690;28;19913;-43
2023/10/03 10:50:25;;;;;;;;;;;;;;;;;;5051493;28;19912;-44
2023/10/03 10:52:53;;;;;;;;;;;;;;;;;;5051925;28;20394;-43
2023/10/03 10:55:20;;;;;;;;;;;;;;;;;;5064400;28;19975;-44
2023/10/03 10:57:46;;;;;;;;;;;;;;;;;;5069919;28;19912;-42
2023/10/03 11:00:12;;;;;;;;;;;;;;;;;;5070892;28;19916;-42
2023/10/03 11:02:38;;;;;;;;;;;;;;;;;;5070430;28;20485;-44
2023/10/03 11:05:05;;;;;;;;;;;;;;;;;;5052050;28;19920;-46
2023/10/03 11:07:33;;;;;;;;;;;;;;;;;;5070529;28;19955;-43
2023/10/03 11:09:59;;;;;;;;;;;;;;;;;;5070197;28;20030;-42
2023/10/03 11:12:25;;;;;;;;;;;;;;;;;;5069715;28;19916;-42
2023/10/03 11:14:52;;;;;;;;;;;;;;;;;;5070801;28;19912;-43
2023/10/03 11:17:18;;;;;;;;;;;;;;;;;;5070309;28;19915;-42
2023/10/03 11:19:44;;;;;;;;;;;;;;;;;;5054414;28;20354;-46
2023/10/03 11:22:13;;;;;;;;;;;;;;;;;;5049618;28;19919;-42
2023/10/03 11:24:39;;;;;;;;;;;;;;;;;;5048657;28;19971;-44
2023/10/03 11:27:05;;;;;;;;;;;;;;;;;;5031818;28;20036;-42
2023/10/03 11:29:31;;;;;;;;;;;;;;;;;;5049486;28;19919;-45
2023/10/03 11:31:57;;;;;;;;;;;;;;;;;;5049534;28;19909;-47
2023/10/03 11:34:23;;;;;;;;;;;;;;;;;;5050107;28;20331;-44
2023/10/03 11:36:51;;;;;;;;;;;;;;;;;;5049487;28;19909;-42
2023/10/03 11:39:17;;;;;;;;;;;;;;;;;;5049956;28;19909;-42
2023/10/03 11:41:44;;;;;;;;;;;;;;;;;;5049225;28;19916;-43
2023/10/03 11:44:10;;;;;;;;;;;;;;;;;;5049730;28;20287;-45
2023/10/03 11:46:36;;;;;;;;;;;;;;;;;;5049397;28;19909;-44
2023/10/03 11:49:03;;;;;;;;;;;;;;;;;;5049090;28;19920;-42
2023/10/03 11:51:29;;;;;;;;;;;;;;;;;;5049090;28;20319;-44
2023/10/03 11:53:55;;;;;;;;;;;;;;;;;;5049934;28;19908;-46
2023/10/03 11:56:21;;;;;;;;;;;;;;;;;;5049073;28;19939;-42
2023/10/03 11:58:47;;;;;;;;;;;;;;;;;;5049170;28;19913;-44
2023/10/03 12:01:12;;;;;;;;;;;;;;;;;;5031106;28;19955;-44
2023/10/03 12:03:38;;;;;;;;;;;;;;;;;;5049007;28;19909;-43
2023/10/03 12:06:04;;;;;;;;;;;;;;;;;;5048908;28;20371;-43
2023/10/03 12:08:32;;;;;;;;;;;;;;;;;;5048710;28;19962;-43
2023/10/03 12:10:57;;;;;;;;;;;;;;;;;;5048721;28;19971;-42
2023/10/03 12:13:23;;;;;;;;;;;;;;;;;;5049643;28;20359;-42
2023/10/03 12:15:49;;;;;;;;;;;;;;;;;;5048315;28;19917;-43
2023/10/03 12:18:15;;;;;;;;;;;;;;;;;;5056812;28;19924;-43
2023/10/03 12:20:43;;;;;;;;;;;;;;;;;;5070007;28;19965;-43
2023/10/03 12:23:09;;;;;;;;;;;;;;;;;;5052331;28;19991;-42
2023/10/03 12:25:35;;;;;;;;;;;;;;;;;;5069983;28;20007;-42
2023/10/03 12:28:01;;;;;;;;;;;;;;;;;;5069522;28;19908;-43
2023/10/03 12:30:27;;;;;;;;;;;;;;;;;;5070444;28;19947;-42
2023/10/03 12:32:56;;;;;;;;;;;;;;;;;;5070230;28;19916;-42
2023/10/03 12:35:22;;;;;;;;;;;;;;;;;;5069583;28;19908;-42
2023/10/03 12:37:48;;;;;;;;;;;;;;;;;;5069158;28;19913;-44
2023/10/03 12:40:16;;;;;;;;;;;;;;;;;;5069408;28;19909;-43
2023/10/03 12:42:43;;;;;;;;;;;;;;;;;;5068952;28;20328;-43
2023/10/03 12:45:12;;;;;;;;;;;;;;;;;;5069697;28;20317;-46
2023/10/03 12:47:39;;;;;;;;;;;;;;;;;;5068021;28;19920;-42
2023/10/03 12:50:06;;;;;;;;;;;;;;;;;;5067053;28;19918;-42
2023/10/03 12:52:33;;;;;;;;;;;;;;;;;;5066499;28;19909;-43
2023/10/03 12:55:00;;;;;;;;;;;;;;;;;;5067308;28;19962;-43
2023/10/03 12:57:26;;;;;;;;;;;;;;;;;;5049256;28;19916;-43
2023/10/03 12:59:52;;;;;;;;;;;;;;;;;;5067096;28;19915;-43
2023/10/03 13:02:19;;;;;;;;;;;;;;;;;;5066808;28;20375;-44
2023/10/03 13:04:47;;;;;;;;;;;;;;;;;;5067218;28;19940;-44
2023/10/03 13:07:14;;;;;;;;;;;;;;;;;;5066290;28;19997;-43
2023/10/03 13:09:39;;;;;;;;;;;;;;;;;;5066315;28;19916;-42
2023/10/03 13:12:05;;;;;;;;;;;;;;;;;;5066843;28;19931;-43
2023/10/03 13:14:32;;;;;;;;;;;;;;;;;;5065943;28;19962;-43
2023/10/03 13:16:59;;;;;;;;;;;;;;;;;;5066977;28;19936;-43
2023/10/03 13:19:25;;;;;;;;;;;;;;;;;;5066218;28;20401;-43
2023/10/03 13:21:51;;;;;;;;;;;;;;;;;;5066470;28;19913;-44
2023/10/03 13:24:20;;;;;;;;;;;;;;;;;;5066843;28;19916;-43
2023/10/03 13:26:46;;;;;;;;;;;;;;;;;;5065977;28;19919;-43
2023/10/03 13:29:12;;;;;;;;;;;;;;;;;;5065781;28;19920;-44
2023/10/03 13:31:37;;;;;;;;;;;;;;;;;;5066413;28;19908;-43
2023/10/03 13:34:03;;;;;;;;;;;;;;;;;;5066507;28;19931;-44
2023/10/03 13:36:30;;;;;;;;;;;;;;;;;;5048572;28;20291;-43
2023/10/03 13:38:56;;;;;;;;;;;;;;;;;;5067181;28;19909;-45
2023/10/03 13:41:21;;;;;;;;;;;;;;;;;;5066383;28;20430;-47
2023/10/03 13:43:48;;;;;;;;;;;;;;;;;;5066379;28;19908;-44
2023/10/03 13:46:15;;;;;;;;;;;;;;;;;;5065423;28;19912;-44
2023/10/03 13:48:41;;;;;;;;;;;;;;;;;;5065478;28;19962;-43
2023/10/03 13:51:07;;;;;;;;;;;;;;;;;;5066258;28;19999;-43
2023/10/03 13:53:33;;;;;;;;;;;;;;;;;;5065920;28;19930;-43
2023/10/03 13:55:59;;;;;;;;;;;;;;;;;;5066772;28;19915;-43
2023/10/03 13:58:29;;;;;;;;;;;;;;;;;;5066178;28;19916;-43
2023/10/03 14:00:55;;;;;;;;;;;;;;;;;;5066325;28;19947;-44
2023/10/03 14:03:22;;;;;;;;;;;;;;;;;;5065646;28;20026;-45
2023/10/03 14:05:48;;;;;;;;;;;;;;;;;;5065763;28;19912;-44
2023/10/03 14:08:14;;;;;;;;;;;;;;;;;;5047969;28;19915;-45
2023/10/03 14:10:40;;;;;;;;;;;;;;;;;;5047658;28;19917;-44
2023/10/03 14:13:06;;;;;;;;;;;;;;;;;;5066016;28;19908;-42
2023/10/03 14:15:33;;;;;;;;;;;;;;;;;;5065816;28;20267;-42
2023/10/03 14:17:59;;;;;;;;;;;;;;;;;;5048396;28;19909;-43
2023/10/03 14:20:26;;;;;;;;;;;;;;;;;;5065679;28;19990;-42
2023/10/03 14:22:52;;;;;;;;;;;;;;;;;;5066006;28;20379;-44
2023/10/03 14:25:18;;;;;;;;;;;;;;;;;;5065650;28;19919;-46
2023/10/03 14:27:44;;;;;;;;;;;;;;;;;;5065640;28;19908;-45
2023/10/03 14:30:10;;;;;;;;;;;;;;;;;;5065771;28;20347;-44
2023/10/03 14:32:36;;;;;;;;;;;;;;;;;;5047501;28;20083;-45
2023/10/03 14:35:02;;;;;;;;;;;;;;;;;;5065916;28;19931;-43
2023/10/03 14:37:28;;;;;;;;;;;;;;;;;;5066203;28;19920;-43
2023/10/03 14:39:55;;;;;;;;;;;;;;;;;;5065836;28;20243;-43
2023/10/03 14:42:20;;;;;;;;;;;;;;;;;;5065508;28;19916;-43
2023/10/03 14:44:46;;;;;;;;;;;;;;;;;;5065432;28;19913;-43
2023/10/03 14:47:12;;;;;;;;;;;;;;;;;;5065888;28;19908;-45
2023/10/03 14:49:38;;;;;;;;;;;;;;;;;;5047363;28;19958;-42
2023/10/03 14:52:05;;;;;;;;;;;;;;;;;;5065512;28;19913;-43
2023/10/03 14:54:33;;;;;;;;;;;;;;;;;;5066376;28;19912;-42
2023/10/03 14:56:59;;;;;;;;;;;;;;;;;;5066574;28;19908;-43
2023/10/03 14:59:25;;;;;;;;;;;;;;;;;;5068135;28;19912;-43
2023/10/03 15:01:53;;;;;;;;;;;;;;;;;;5069380;28;19913;-45
2023/10/03 15:04:19;;;;;;;;;;;;;;;;;;5068265;28;20409;-43
2023/10/03 15:06:45;;;;;;;;;;;;;;;;;;5068784;28;19913;-43
2023/10/03 15:09:11;;;;;;;;;;;;;;;;;;5066002;28;19926;-43
2023/10/03 15:11:37;;;;;;;;;;;;;;;;;;5066633;28;20118;-44
2023/10/03 15:14:03;;;;;;;;;;;;;;;;;;5068863;28;19962;-45
2023/10/03 15:16:32;;;;;;;;;;;;;;;;;;5051163;28;20442;-46
2023/10/03 15:18:58;;;;;;;;;;;;;;;;;;5068975;28;19970;-43
2023/10/03 15:21:24;;;;;;;;;;;;;;;;;;5068737;28;19912;-43
2023/10/03 15:23:51;;;;;;;;;;;;;;;;;;5068886;28;19912;-46
2023/10/03 15:26:17;;;;;;;;;;;;;;;;;;5050347;28;19958;-43
2023/10/03 15:28:44;;;;;;;;;;;;;;;;;;5068696;28;19908;-44
2023/10/03 15:31:10;;;;;;;;;;;;;;;;;;5069213;28;19908;-43
2023/10/03 15:33:36;;;;;;;;;;;;;;;;;;5068042;28;20466;-43
2023/10/03 15:36:02;;;;;;;;;;;;;;;;;;5069096;28;19916;-43
2023/10/03 15:38:28;;;;;;;;;;;;;;;;;;5068350;28;19908;-44
2023/10/03 15:40:54;;;;;;;;;;;;;;;;;;5065524;28;19920;-42
2023/10/03 15:43:20;;;;;;;;;;;;;;;;;;5048544;28;20284;-43
2023/10/03 15:45:47;;;;;;;;;;;;;;;;;;5067345;28;19912;-45
2023/10/03 15:48:13;;;;;;;;;;;;;;;;;;5066956;28;20438;-44
2023/10/03 15:50:40;;;;;;;;;;;;;;;;;;5066639;28;20031;-43
2023/10/03 15:53:07;;;;;;;;;;;;;;;;;;5067848;28;19927;-44
2023/10/03 15:55:33;;;;;;;;;;;;;;;;;;5067344;28;19916;-44
2023/10/03 15:57:59;;;;;;;;;;;;;;;;;;5084939;28;19961;-43
2023/10/03 16:00:25;;;;;;;;;;;;;;;;;;5069324;28;19920;-43
2023/10/03 16:02:52;;;;;;;;;;;;;;;;;;5069521;28;20303;-43
2023/10/03 16:05:18;;;;;;;;;;;;;;;;;;5068379;28;20375;-43
2023/10/03 16:07:46;;;;;;;;;;;;;;;;;;5065637;28;19967;-44
2023/10/03 16:10:12;;;;;;;;;;;;;;;;;;5062123;28;19924;-45
2023/10/03 16:12:39;;;;;;;;;;;;;;;;;;5067255;28;19908;-43
2023/10/03 16:15:05;;;;;;;;;;;;;;;;;;5070307;28;20008;-42
2023/10/03 16:17:31;;;;;;;;;;;;;;;;;;5069973;28;20442;-42
2023/10/03 16:19:57;;;;;;;;;;;;;;;;;;5067366;28;19927;-42
2023/10/03 16:22:23;;;;;;;;;;;;;;;;;;5062348;28;19919;-43
2023/10/03 16:24:49;;;;;;;;;;;;;;;;;;5068579;28;19912;-43
2023/10/03 16:27:15;;;;;;;;;;;;;;;;;;5068364;28;19923;-42
2023/10/03 16:29:41;;;;;;;;;;;;;;;;;;5068340;28;20329;-45
2023/10/03 16:32:11;;;;;;;;;;;;;;;;;;5069490;28;19913;-45
2023/10/03 16:34:38;;;;;;;;;;;;;;;;;;5066829;28;19915;-44
2023/10/03 16:37:04;;;;;;;;;;;;;;;;;;5067336;28;20383;-43
2023/10/03 16:39:32;;;;;;;;;;;;;;;;;;5067398;28;19913;-43
2023/10/03 16:41:59;;;;;;;;;;;;;;;;;;5067031;28;19920;-44
2023/10/03 16:44:25;;;;;;;;;;;;;;;;;;5067571;28;19912;-45
2023/10/03 16:46:52;;;;;;;;;;;;;;;;;;5067230;28;19961;-44
2023/10/03 16:49:18;;;;;;;;;;;;;;;;;;5068358;28;19924;-47
2023/10/03 16:51:44;;;;;;;;;;;;;;;;;;5067805;28;19916;-43
2023/10/03 16:54:10;;;;;;;;;;;;;;;;;;5066520;28;19912;-46
2023/10/03 16:56:36;;;;;;;;;;;;;;;;;;5067267;28;19923;-43
2023/10/03 16:59:02;;;;;;;;;;;;;;;;;;5078211;28;20003;-44
2023/10/03 17:01:28;;;;;;;;;;;;;;;;;;5063208;28;20421;-44
2023/10/03 17:03:54;;;;;;;;;;;;;;;;;;5065355;28;19916;-44
2023/10/03 17:06:21;;;;;;;;;;;;;;;;;;5067688;28;19912;-46
2023/10/03 17:08:47;;;;;;;;;;;;;;;;;;5067003;28;19913;-44
2023/10/03 17:11:13;;;;;;;;;;;;;;;;;;5059510;28;19912;-43
2023/10/03 17:13:39;;;;;;;;;;;;;;;;;;5067949;28;19913;-44
2023/10/03 17:16:06;;;;;;;;;;;;;;;;;;5067720;28;19935;-43
2023/10/03 17:18:32;;;;;;;;;;;;;;;;;;5062510;28;19917;-44
2023/10/03 17:20:58;;;;;;;;;;;;;;;;;;5044227;28;19940;-43
2023/10/03 17:23:24;;;;;;;;;;;;;;;;;;5046422;28;20376;-43
2023/10/03 17:25:50;;;;;;;;;;;;;;;;;;5046746;28;19926;-43
2023/10/03 17:28:18;;;;;;;;;;;;;;;;;;5044828;28;21478;-43
2023/10/03 17:30:44;;;;;;;;;;;;;;;;;;5028102;28;19924;-42
2023/10/03 17:33:10;;;;;;;;;;;;;;;;;;5028528;28;19912;-44
2023/10/03 17:35:36;;;;;;;;;;;;;;;;;;5051031;28;20012;-45
2023/10/03 17:38:02;;;;;;;;;;;;;;;;;;5045424;28;20003;-43
2023/10/03 17:40:28;;;;;;;;;;;;;;;;;;5047295;28;19948;-43
2023/10/03 17:42:54;;;;;;;;;;;;;;;;;;5047635;28;19913;-45
2023/10/03 17:45:20;;;;;;;;;;;;;;;;;;5047366;28;19916;-44
2023/10/03 17:47:46;;;;;;;;;;;;;;;;;;5039564;28;20000;-43
2023/10/03 17:50:13;;;;;;;;;;;;;;;;;;5040285;28;19925;-44
2023/10/03 17:52:39;;;;;;;;;;;;;;;;;;5025201;28;19917;-43
2023/10/03 17:55:05;;;;;;;;;;;;;;;;;;5043842;28;19948;-45
2023/10/03 17:57:32;;;;;;;;;;;;;;;;;;5040108;28;19916;-43
2023/10/03 17:59:57;;;;;;;;;;;;;;;;;;5043075;28;20366;-43
2023/10/03 18:02:23;;;;;;;;;;;;;;;;;;5041573;28;19913;-43
2023/10/03 18:04:50;;;;;;;;;;;;;;;;;;5041122;28;19920;-44
2023/10/03 18:07:16;;;;;;;;;;;;;;;;;;5043366;28;19913;-43
2023/10/03 18:09:42;;;;;;;;;;;;;;;;;;5040094;28;19936;-42
2023/10/03 18:12:10;;;;;;;;;;;;;;;;;;5044944;28;20474;-47
2023/10/03 18:14:36;;;;;;;;;;;;;;;;;;5044007;28;20403;-42
2023/10/03 18:17:03;;;;;;;;;;;;;;;;;;5045876;28;19913;-43
2023/10/03 18:19:29;;;;;;;;;;;;;;;;;;5066766;28;19923;-42
2023/10/03 18:21:55;;;;;;;;;;;;;;;;;;5081905;28;19916;-43
2023/10/03 18:24:21;;;;;;;;;;;;;;;;;;5058800;28;19916;-42
2023/10/03 18:26:48;;;;;;;;;;;;;;;;;;5082378;28;20397;-42
2023/10/03 18:29:15;;;;;;;;;;;;;;;;;;5064827;28;19916;-42
2023/10/03 18:31:42;;;;;;;;;;;;;;;;;;5061516;28;19916;-42
2023/10/03 18:34:08;;;;;;;;;;;;;;;;;;5085871;28;19929;-45
2023/10/03 18:36:33;;;;;;;;;;;;;;;;;;5084764;28;20360;-43
2023/10/03 18:39:00;;;;;;;;;;;;;;;;;;5089021;28;19959;-43
2023/10/03 18:41:25;;;;;;;;;;;;;;;;;;5087765;28;20336;-43
2023/10/03 18:43:53;;;;;;;;;;;;;;;;;;5082812;28;19927;-43
2023/10/03 18:46:19;;;;;;;;;;;;;;;;;;5083859;28;19923;-44
2023/10/03 18:48:45;;;;;;;;;;;;;;;;;;5086384;28;19912;-43
2023/10/03 18:51:11;;;;;;;;;;;;;;;;;;5087585;28;20298;-42
2023/10/03 18:53:38;;;;;;;;;;;;;;;;;;5089323;28;19991;-43
2023/10/03 18:56:04;;;;;;;;;;;;;;;;;;5088600;28;19916;-43
2023/10/03 18:58:30;;;;;;;;;;;;;;;;;;5067351;28;19920;-42
2023/10/03 19:00:57;;;;;;;;;;;;;;;;;;5087050;28;19913;-42
2023/10/03 19:03:23;;;;;;;;;;;;;;;;;;5084509;28;20509;-42
2023/10/03 19:05:50;;;;;;;;;;;;;;;;;;5085500;28;19912;-43
2023/10/03 19:08:15;;;;;;;;;;;;;;;;;;5087863;28;19912;-44
2023/10/03 19:10:41;;;;;;;;;;;;;;;;;;5085813;28;19920;-43
2023/10/03 19:13:07;;;;;;;;;;;;;;;;;;5085967;28;19935;-43
2023/10/03 19:15:33;;;;;;;;;;;;;;;;;;5086841;28;19912;-43
2023/10/03 19:17:59;;;;;;;;;;;;;;;;;;5085999;28;19912;-43
2023/10/03 19:20:25;;;;;;;;;;;;;;;;;;5083343;28;20394;-43
2023/10/03 19:22:51;;;;;;;;;;;;;;;;;;5086313;28;19916;-44
2023/10/03 19:25:18;;;;;;;;;;;;;;;;;;5085499;28;19918;-43
2023/10/03 19:27:43;;;;;;;;;;;;;;;;;;5064381;28;21152;-43
2023/10/03 19:30:12;;;;;;;;;;;;;;;;;;5082466;28;19973;-43
2023/10/03 19:32:38;;;;;;;;;;;;;;;;;;5083684;28;19943;-47
2023/10/03 19:35:04;;;;;;;;;;;;;;;;;;5083972;28;19912;-44
2023/10/03 19:37:30;;;;;;;;;;;;;;;;;;5082583;28;19916;-43
2023/10/03 19:39:56;;;;;;;;;;;;;;;;;;5059737;28;20315;-44
2023/10/03 19:42:21;;;;;;;;;;;;;;;;;;5084944;28;20000;-42
2023/10/03 19:44:48;;;;;;;;;;;;;;;;;;5081419;28;19916;-43
2023/10/03 19:47:14;;;;;;;;;;;;;;;;;;5084465;28;20006;-43
2023/10/03 19:49:40;;;;;;;;;;;;;;;;;;5090411;28;20045;-46
2023/10/03 19:52:06;;;;;;;;;;;;;;;;;;5087158;28;19916;-44
2023/10/03 19:54:32;;;;;;;;;;;;;;;;;;5069579;28;20298;-43
2023/10/03 19:56:59;;;;;;;;;;;;;;;;;;5088212;28;19914;-43
2023/10/03 19:59:25;;;;;;;;;;;;;;;;;;5088159;28;19908;-43
2023/10/03 20:01:51;;;;;;;;;;;;;;;;;;5088133;28;19998;-43
2023/10/03 20:04:18;;;;;;;;;;;;;;;;;;5088352;28;19951;-42
2023/10/03 20:06:47;;;;;;;;;;;;;;;;;;5087881;28;20298;-43
2023/10/03 20:09:15;;;;;;;;;;;;;;;;;;5088070;28;20358;-43
2023/10/03 20:11:41;;;;;;;;;;;;;;;;;;5070380;28;19955;-43
2023/10/03 20:14:09;;;;;;;;;;;;;;;;;;5088113;28;20413;-43
2023/10/03 20:16:35;;;;;;;;;;;;;;;;;;5087785;28;19961;-44
2023/10/03 20:19:01;;;;;;;;;;;;;;;;;;5087652;28;19919;-42
2023/10/03 20:21:27;;;;;;;;;;;;;;;;;;5087468;28;20041;-42
2023/10/03 20:23:53;;;;;;;;;;;;;;;;;;5069771;28;19908;-42
2023/10/03 20:26:19;;;;;;;;;;;;;;;;;;5065893;28;19923;-43
2023/10/03 20:28:45;;;;;;;;;;;;;;;;;;5067465;28;19909;-43
2023/10/03 20:31:11;;;;;;;;;;;;;;;;;;5068069;28;20054;-42
2023/10/03 20:33:39;;;;;;;;;;;;;;;;;;5066174;28;20389;-42
2023/10/03 20:36:04;;;;;;;;;;;;;;;;;;5067273;28;19912;-44
2023/10/03 20:38:30;;;;;;;;;;;;;;;;;;5066883;28;20109;-43
2023/10/03 20:40:56;;;;;;;;;;;;;;;;;;5069351;28;19919;-43
2023/10/03 20:43:23;;;;;;;;;;;;;;;;;;5086878;28;20476;-43
2023/10/03 20:45:48;;;;;;;;;;;;;;;;;;5087251;28;19918;-44
2023/10/03 20:48:14;;;;;;;;;;;;;;;;;;5087156;28;19912;-43
2023/10/03 20:50:40;;;;;;;;;;;;;;;;;;5087618;28;19938;-46
2023/10/03 20:53:06;;;;;;;;;;;;;;;;;;5069408;28;19955;-45
2023/10/03 20:55:32;;;;;;;;;;;;;;;;;;5086463;28;19912;-44
2023/10/03 20:58:01;;;;;;;;;;;;;;;;;;5068932;28;20074;-44
2023/10/03 21:00:26;;;;;;;;;;;;;;;;;;5086999;28;19999;-43
2023/10/03 21:02:52;;;;;;;;;;;;;;;;;;5068095;28;19995;-44
2023/10/03 21:05:18;;;;;;;;;;;;;;;;;;5066986;28;19944;-43
2023/10/03 21:07:45;;;;;;;;;;;;;;;;;;5066116;28;19959;-42
2023/10/03 21:10:11;;;;;;;;;;;;;;;;;;5067454;28;19947;-47
2023/10/03 21:12:38;;;;;;;;;;;;;;;;;;5066425;28;19908;-44
2023/10/03 21:15:05;;;;;;;;;;;;;;;;;;5085768;28;20367;-42
2023/10/03 21:17:31;;;;;;;;;;;;;;;;;;5086669;28;20011;-44
2023/10/03 21:19:57;;;;;;;;;;;;;;;;;;5086620;28;20430;-43
2023/10/03 21:22:23;;;;;;;;;;;;;;;;;;5068373;28;19958;-43
2023/10/03 21:24:49;;;;;;;;;;;;;;;;;;5086833;28;19908;-42
2023/10/03 21:27:14;;;;;;;;;;;;;;;;;;5087348;28;20096;-43
2023/10/03 21:29:40;;;;;;;;;;;;;;;;;;5087028;28;19912;-44
2023/10/03 21:32:06;;;;;;;;;;;;;;;;;;5068397;28;20010;-43
2023/10/03 21:34:33;;;;;;;;;;;;;;;;;;5086038;28;20054;-44
2023/10/03 21:36:59;;;;;;;;;;;;;;;;;;5071321;28;20525;-43
2023/10/03 21:39:24;;;;;;;;;;;;;;;;;;5067942;28;19908;-45
2023/10/03 21:41:50;;;;;;;;;;;;;;;;;;5068589;28;19908;-43
2023/10/03 21:44:16;;;;;;;;;;;;;;;;;;5086560;28;19908;-44
2023/10/03 21:46:42;;;;;;;;;;;;;;;;;;5087258;28;20007;-43
2023/10/03 21:49:09;;;;;;;;;;;;;;;;;;5086225;28;19962;-43
2023/10/03 21:51:35;;;;;;;;;;;;;;;;;;5067775;28;20286;-43
2023/10/03 21:54:01;;;;;;;;;;;;;;;;;;5086617;28;19918;-43
2023/10/03 21:56:27;;;;;;;;;;;;;;;;;;5086418;28;19908;-43
2023/10/03 21:58:53;;;;;;;;;;;;;;;;;;5086350;28;20358;-44
2023/10/03 22:01:25;;;;;;;;;;;;;;;;;;5086466;28;19908;-44
2023/10/03 22:03:51;;;;;;;;;;;;;;;;;;5086497;28;20410;-44